Time;durP1;ratioP1;P1;durP2;ratioP2;P2;SDS_P1;SDS_P2;PMS_P1;PMS_P2;Temp;Humidity;BMP_temperature;BMP_pressure;BME280_temperature;BME280_humidity;BME280_pressure;Samples;Min_cycle;Max_cycle;Signal;HPM_P1;HPM_P2
2021/11/19 00:00:16;;;;;;;;;223.25;176.00;;;;;3.65;63.32;101639.78;4934763;29;8892;-68
2021/11/19 00:03:14;;;;;;;;;218.25;176.75;;;;;3.39;65.05;101636.00;4932837;29;8889;-68
2021/11/19 00:06:10;;;;;;;;;218.75;173.75;;;;;3.32;65.74;101638.13;4931528;29;8932;-68
2021/11/19 00:09:08;;;;;;;;;210.25;170.25;;;;;3.32;65.75;101629.94;4935058;29;8847;-69
2021/11/19 00:12:05;;;;;;;;;188.75;170.50;;;;;3.34;65.52;101631.31;4929383;29;8865;-68
2021/11/19 00:14:41;;;;;;;;;187.75;134.50;;;;;3.39;65.44;101626.97;4936063;29;8873;-68
2021/11/19 00:17:37;;;;;;;;;228.50;180.50;;;;;3.52;65.20;101621.88;4935013;29;8873;-68
2021/11/19 00:20:33;;;;;;;;;218.25;181.50;;;;;3.33;66.25;101615.16;4934710;29;8851;-69
2021/11/19 00:23:29;;;;;;;;;194.75;150.75;;;;;3.36;65.37;101617.38;4934664;29;8839;-68
2021/11/19 00:26:25;;;;;;;;;217.25;179.00;;;;;3.35;65.61;101618.47;4934814;29;8849;-68
2021/11/19 00:29:21;;;;;;;;;233.25;176.25;;;;;3.27;65.66;101614.28;4915735;29;8844;-68
2021/11/19 00:32:18;;;;;;;;;218.25;178.00;;;;;3.23;66.03;101621.38;4923168;29;8830;-68
2021/11/19 00:35:14;;;;;;;;;127.50;90.25;;;;;3.23;65.87;101623.28;4934768;29;8870;-68
2021/11/19 00:38:12;;;;;;;;;178.00;152.75;;;;;3.38;65.79;101620.69;4934843;29;8846;-68
2021/11/19 00:41:10;;;;;;;;;194.75;156.25;;;;;3.39;65.88;101614.13;4935773;29;8850;-68
2021/11/19 00:43:52;;;;;;;;;153.50;143.00;;;;;3.49;65.63;101622.41;4937116;29;8932;-68
2021/11/19 00:46:49;;;;;;;;;193.75;157.25;;;;;3.43;65.93;101611.69;4937396;29;8823;-68
2021/11/19 00:49:45;;;;;;;;;175.50;143.25;;;;;3.52;65.56;101610.94;4938452;29;8846;-68
2021/11/19 00:52:40;;;;;;;;;190.00;156.75;;;;;3.53;65.67;101623.56;4938439;29;8846;-68
2021/11/19 00:55:37;;;;;;;;;180.50;144.50;;;;;3.37;66.08;101626.41;4938319;29;8834;-68
2021/11/19 00:58:32;;;;;;;;;200.00;164.00;;;;;3.38;67.26;101617.13;4925437;29;8866;-68
2021/11/19 01:01:37;;;;;;;;;204.75;166.50;;;;;3.65;66.35;101606.13;4938896;29;8913;-68
2021/11/19 01:04:33;;;;;;;;;190.25;160.25;;;;;3.51;67.71;101600.25;4938643;29;8870;-68
2021/11/19 01:07:29;;;;;;;;;207.00;166.25;;;;;3.61;66.83;101590.25;4937814;29;9008;-68
2021/11/19 01:10:28;;;;;;;;;192.00;162.75;;;;;3.51;68.11;101601.09;4937985;29;8961;-68
2021/11/19 01:13:26;;;;;;;;;153.00;92.25;;;;;3.74;68.14;101596.34;4937615;29;8858;-68
2021/11/19 01:16:28;;;;;;;;;185.75;147.25;;;;;3.62;69.09;101591.88;4938575;29;8897;-68
2021/11/19 01:19:35;;;;;;;;;189.75;154.50;;;;;3.50;70.85;101585.75;4918627;29;9714;-68
2021/11/19 01:22:33;;;;;;;;;189.50;150.25;;;;;3.44;71.98;101578.59;4918560;29;8863;-68
2021/11/19 01:25:32;;;;;;;;;188.25;152.00;;;;;3.41;72.92;101579.13;4936307;29;8956;-67
2021/11/19 01:28:28;;;;;;;;;187.25;141.75;;;;;3.37;74.11;101569.78;4936529;29;8858;-68
2021/11/19 01:31:34;;;;;;;;;178.25;132.25;;;;;3.52;74.03;101574.56;4937346;29;8846;-68
2021/11/19 01:34:30;;;;;;;;;148.50;124.75;;;;;3.68;74.69;101581.81;4937304;29;8842;-69
2021/11/19 01:37:27;;;;;;;;;152.50;128.25;;;;;3.77;74.04;101579.41;4937178;29;8842;-68
2021/11/19 01:40:27;;;;;;;;;160.00;127.00;;;;;3.81;74.55;101567.66;4937399;29;8861;-67
2021/11/19 01:43:23;;;;;;;;;147.25;127.50;;;;;3.80;74.69;101574.22;4936961;29;8846;-67
2021/11/19 01:46:23;;;;;;;;;143.50;121.00;;;;;3.81;74.76;101570.38;4937236;29;8826;-67
2021/11/19 01:49:21;;;;;;;;;124.50;101.25;;;;;3.80;75.16;101566.00;4936424;29;8843;-67
2021/11/19 01:52:22;;;;;;;;;136.25;106.00;;;;;3.75;75.71;101556.94;4930766;29;8944;-68
2021/11/19 01:55:24;;;;;;;;;131.25;105.25;;;;;3.83;76.16;101560.03;4933749;29;8850;-68
2021/11/19 01:58:27;;;;;;;;;121.75;102.50;;;;;3.94;75.68;101569.09;4936287;29;8877;-67
2021/11/19 02:01:40;;;;;;;;;100.33;76.67;;;;;4.01;75.59;101560.66;4935090;29;8878;-68
2021/11/19 02:04:48;;;;;;;;;93.00;72.33;;;;;3.96;75.91;101553.25;4926642;29;8877;-68
2021/11/19 02:07:47;;;;;;;;;93.33;69.33;;;;;3.89;76.35;101547.16;4936978;29;8877;-68
2021/11/19 02:10:45;;;;;;;;;73.67;58.67;;;;;4.05;75.84;101550.81;4937434;29;9619;-68
2021/11/19 02:14:11;;;;;;;;;51.33;46.67;;;;;4.16;74.50;101550.59;4936616;29;9583;-67
2021/11/19 02:17:08;;;;;;;;;69.67;58.00;;;;;4.22;74.83;101550.59;4935648;29;9795;-68
2021/11/19 02:20:18;;;;;;;;;76.00;61.67;;;;;4.17;74.98;101546.78;4936590;29;8842;-68
2021/11/19 02:23:19;;;;;;;;;66.67;54.67;;;;;4.14;75.13;101546.47;4937437;29;8854;-68
2021/11/19 02:26:21;;;;;;;;;74.00;60.00;;;;;4.15;75.15;101548.16;4936403;29;8917;-70
2021/11/19 02:29:17;;;;;;;;;70.33;59.00;;;;;4.22;75.12;101551.47;4936478;29;8858;-69
2021/11/19 02:32:18;;;;;;;;;67.67;54.67;;;;;4.36;74.63;101554.50;4936762;29;8858;-69
2021/11/19 02:35:18;;;;;;;;;67.00;55.33;;;;;4.27;74.27;101558.84;4936141;29;8876;-68
2021/11/19 02:38:15;;;;;;;;;70.33;57.00;;;;;4.26;74.81;101557.22;4936316;29;8846;-69
2021/11/19 02:41:12;;;;;;;;;74.67;60.00;;;;;4.40;74.50;101558.38;4936338;29;8854;-68
2021/11/19 02:44:10;;;;;;;;;66.33;52.67;;;;;4.29;74.75;101557.47;4936302;29;8831;-70
2021/11/19 02:47:10;;;;;;;;;69.33;55.33;;;;;4.29;75.19;101556.66;4917823;29;8856;-69
2021/11/19 02:50:06;;;;;;;;;68.67;58.00;;;;;4.29;75.72;101545.72;4916967;29;9609;-69
2021/11/19 02:53:04;;;;;;;;;70.33;57.00;;;;;4.19;76.11;101538.28;4936068;29;8890;-68
2021/11/19 02:55:59;;;;;;;;;69.33;57.33;;;;;4.22;76.83;101534.19;4935895;29;8815;-69
2021/11/19 02:58:57;;;;;;;;;60.67;51.67;;;;;4.12;76.58;101534.97;4936931;29;8954;-68
2021/11/19 03:02:05;;;;;;;;;65.33;53.33;;;;;4.19;76.10;101525.41;4935174;28;8831;-68
2021/11/19 03:05:07;;;;;;;;;66.67;55.33;;;;;4.24;75.91;101527.38;4935762;29;8850;-67
2021/11/19 03:08:03;;;;;;;;;64.33;54.00;;;;;4.38;75.32;101531.25;4917474;29;8868;-69
2021/11/19 03:11:00;;;;;;;;;71.33;56.33;;;;;4.22;76.26;101532.28;4916937;29;8886;-69
2021/11/19 03:13:55;;;;;;;;;66.00;56.33;;;;;4.12;76.50;101522.09;4916828;29;8841;-68
2021/11/19 03:16:53;;;;;;;;;62.00;47.67;;;;;4.22;76.76;101529.56;4933088;29;9584;-69
2021/11/19 03:19:49;;;;;;;;;70.67;58.67;;;;;4.15;76.52;101527.06;4935811;29;8838;-69
2021/11/19 03:22:46;;;;;;;;;66.33;55.33;;;;;4.11;77.18;101530.59;4935780;29;8855;-69
2021/11/19 03:25:43;;;;;;;;;71.67;59.33;;;;;4.25;76.92;101526.28;4935405;29;8863;-68
2021/11/19 03:28:40;;;;;;;;;64.00;54.67;;;;;4.19;77.44;101530.06;4935513;29;8866;-69
2021/11/19 03:31:37;;;;;;;;;69.67;55.67;;;;;4.17;77.04;101524.88;4935350;29;8831;-69
2021/11/19 03:34:33;;;;;;;;;72.33;58.00;;;;;4.30;76.51;101520.81;4936178;29;8937;-69
2021/11/19 03:37:29;;;;;;;;;65.67;52.33;;;;;4.32;76.08;101521.38;4916148;29;8848;-69
2021/11/19 03:40:29;;;;;;;;;72.67;57.67;;;;;4.32;75.89;101521.38;4916553;29;8971;-68
2021/11/19 03:43:29;;;;;;;;;69.67;58.33;;;;;4.21;76.23;101514.19;4916223;29;8840;-68
2021/11/19 03:46:30;;;;;;;;;66.00;53.67;;;;;4.17;77.22;101505.72;4931340;29;8846;-68
2021/11/19 03:49:27;;;;;;;;;68.00;58.00;;;;;4.07;77.46;101508.41;4926812;29;8853;-67
2021/11/19 03:52:35;;;;;;;;;68.67;56.67;;;;;4.02;77.85;101500.16;4922755;29;8870;-68
2021/11/19 03:55:33;;;;;;;;;72.00;58.33;;;;;4.16;76.96;101492.28;4925476;29;8954;-67
2021/11/19 03:58:32;;;;;;;;;75.00;58.33;;;;;4.30;76.83;101498.09;4934872;29;8850;-68
2021/11/19 04:01:33;;;;;;;;;63.67;51.00;;;;;4.21;77.71;101499.69;4935039;29;8921;-68
2021/11/19 04:04:31;;;;;;;;;63.33;55.00;;;;;4.25;77.43;101501.63;4934696;29;8858;-68
2021/11/19 04:07:27;;;;;;;;;67.67;58.00;;;;;4.30;77.19;101503.56;4915958;29;8988;-69
2021/11/19 04:10:24;;;;;;;;;69.00;58.33;;;;;4.06;78.16;101504.00;4916023;29;8868;-69
2021/11/19 04:13:20;;;;;;;;;67.33;57.67;;;;;4.03;77.88;101498.25;4931855;29;8869;-68
2021/11/19 04:16:22;;;;;;;;;70.67;57.00;;;;;4.03;77.80;101499.06;4936145;29;8842;-69
2021/11/19 04:19:20;;;;;;;;;69.67;55.33;;;;;4.01;77.73;101486.75;4938963;29;8925;-69
2021/11/19 04:22:18;;;;;;;;;69.00;54.67;;;;;3.92;77.82;101488.38;4938539;29;9245;-69
2021/11/19 04:25:17;;;;;;;;;61.33;52.00;;;;;3.97;77.50;101488.38;4938608;29;8839;-69
2021/11/19 04:28:13;;;;;;;;;77.67;61.67;;;;;3.79;78.27;101501.44;4938806;29;8886;-69
2021/11/19 04:31:10;;;;;;;;;73.33;56.33;;;;;3.70;78.63;101513.16;4939201;29;8877;-68
2021/11/19 04:34:07;;;;;;;;;74.33;60.67;;;;;3.86;78.84;101512.13;4920218;29;8923;-68
2021/11/19 04:37:03;;;;;;;;;80.33;63.33;;;;;4.04;78.30;101508.09;4938086;29;8858;-68
2021/11/19 04:39:58;;;;;;;;;79.67;63.67;;;;;3.80;79.80;101511.28;4938433;29;8957;-67
2021/11/19 04:42:54;;;;;;;;;76.33;61.00;;;;;3.99;79.31;101508.06;4938160;29;8956;-67
2021/11/19 04:45:51;;;;;;;;;79.00;62.33;;;;;4.05;78.92;101504.28;4938438;29;8854;-67
2021/11/19 04:48:46;;;;;;;;;75.33;60.33;;;;;3.95;79.35;101496.84;4938395;29;8839;-68
2021/11/19 04:51:45;;;;;;;;;71.67;59.00;;;;;4.13;79.02;101490.06;4938439;29;9001;-68
2021/11/19 04:54:42;;;;;;;;;76.33;64.33;;;;;4.11;78.84;101495.81;4925460;29;8842;-68
2021/11/19 04:57:38;;;;;;;;;84.00;66.00;;;;;4.19;78.95;101498.03;4938972;29;8843;-68
2021/11/19 05:00:45;;;;;;;;;76.67;62.33;;;;;4.18;78.82;101506.53;4938040;29;8830;-68
2021/11/19 05:03:41;;;;;;;;;82.33;63.00;;;;;4.23;78.37;101500.25;4938631;29;9741;-68
2021/11/19 05:06:37;;;;;;;;;70.33;58.33;;;;;4.00;78.66;101496.06;4937405;29;8850;-68
2021/11/19 05:09:32;;;;;;;;;77.33;63.00;;;;;3.86;79.52;101503.94;4938022;29;9670;-68
2021/11/19 05:12:37;;;;;;;;;77.33;62.67;;;;;3.85;79.24;101510.50;4937796;29;8839;-68
2021/11/19 05:15:34;;;;;;;;;73.67;61.00;;;;;3.79;79.43;101508.81;4938013;29;8878;-67
2021/11/19 05:18:32;;;;;;;;;75.33;61.00;;;;;3.71;79.14;101499.19;4937932;29;8846;-68
2021/11/19 05:21:28;;;;;;;;;78.67;59.33;;;;;3.74;79.27;101498.66;4937807;29;8854;-68
2021/11/19 05:24:24;;;;;;;;;86.00;68.33;;;;;3.78;79.62;101501.69;4937598;29;8839;-68
2021/11/19 05:27:20;;;;;;;;;74.00;60.67;;;;;3.79;79.83;101498.69;4937367;29;8842;-68
2021/11/19 05:30:17;;;;;;;;;87.00;64.33;;;;;3.89;79.70;101501.47;4937529;29;8941;-68
2021/11/19 05:33:16;;;;;;;;;79.33;64.00;;;;;3.89;79.50;101506.13;4937411;29;8862;-67
2021/11/19 05:36:12;;;;;;;;;78.67;64.00;;;;;3.94;79.01;101506.16;4937555;29;8865;-67
2021/11/19 05:39:08;;;;;;;;;82.00;64.00;;;;;3.78;79.64;101499.78;4924839;29;8854;-69
2021/11/19 05:42:05;;;;;;;;;79.00;60.67;;;;;3.69;79.24;101506.84;4938164;29;8838;-68
2021/11/19 05:45:03;;;;;;;;;92.67;70.00;;;;;3.90;78.91;101513.25;4934617;28;9585;-69
2021/11/19 05:47:59;;;;;;;;;81.67;65.33;;;;;3.90;79.55;101505.84;4936697;29;8857;-70
2021/11/19 05:50:56;;;;;;;;;81.33;64.33;;;;;3.95;79.75;101502.31;4935926;29;8973;-70
2021/11/19 05:53:52;;;;;;;;;82.33;66.67;;;;;3.95;79.91;101510.53;4936559;29;8842;-70
2021/11/19 05:56:49;;;;;;;;;81.33;65.67;;;;;4.08;80.03;101501.03;4936949;29;8881;-71
2021/11/19 05:59:45;;;;;;;;;86.33;66.00;;;;;4.29;80.81;101497.25;4936903;29;9665;-71
2021/11/19 06:02:40;;;;;;;;;82.33;62.67;;;;;4.86;83.78;101495.44;4936699;29;8908;-70
2021/11/19 06:05:36;;;;;;;;;82.67;62.00;;;;;4.96;80.62;101498.19;4936044;29;8830;-71
2021/11/19 06:08:32;;;;;;;;;90.00;71.33;;;;;5.02;79.01;101492.44;4936391;29;8870;-70
2021/11/19 06:11:09;;;;;;;;;70.00;56.33;;;;;5.03;78.07;101506.97;4937572;29;8838;-71
2021/11/19 06:14:10;;;;;;;;;83.00;67.67;;;;;4.99;77.65;101497.66;4936012;29;8838;-71
2021/11/19 06:17:10;;;;;;;;;83.00;65.67;;;;;4.97;77.38;101500.66;4938420;29;8835;-70
2021/11/19 06:20:13;;;;;;;;;80.33;62.33;;;;;5.07;78.02;101491.63;4936362;29;8846;-71
2021/11/19 06:23:16;;;;;;;;;83.67;68.33;;;;;5.32;78.74;101492.72;4936137;29;8850;-71
2021/11/19 06:26:16;;;;;;;;;77.00;63.00;;;;;5.86;80.21;101490.09;4930414;29;8847;-70
2021/11/19 06:29:12;;;;;;;;;85.67;66.33;;;;;5.78;76.87;101498.91;4926936;29;8864;-70
2021/11/19 06:32:08;;;;;;;;;87.00;68.00;;;;;6.16;79.30;101497.44;4935988;29;8842;-69
2021/11/19 06:35:05;;;;;;;;;90.00;68.00;;;;;6.28;74.82;101491.59;4922935;29;8855;-72
2021/11/19 06:38:01;;;;;;;;;76.67;62.67;;;;;6.71;76.79;101476.22;4935648;29;8929;-71
2021/11/19 06:40:56;;;;;;;;;75.00;58.33;;;;;6.82;75.11;101465.97;4935806;29;8846;-72
2021/11/19 06:43:53;;;;;;;;;75.67;62.00;;;;;6.78;78.51;101457.50;4935049;29;12457;-71
2021/11/19 06:46:48;;;;;;;;;77.00;60.67;;;;;6.78;73.92;101453.91;4936296;29;8905;-72
2021/11/19 06:49:45;;;;;;;;;65.33;54.33;;;;;6.58;72.63;101447.44;4935697;29;8850;-71
2021/11/19 06:52:41;;;;;;;;;81.33;63.33;;;;;6.55;73.05;101455.47;4935328;29;8939;-71
2021/11/19 06:55:37;;;;;;;;;81.33;65.33;;;;;6.54;75.07;101446.41;4935608;29;8842;-71
2021/11/19 06:58:34;;;;;;;;;76.00;64.67;;;;;6.46;73.00;101454.44;4923064;29;8868;-73
2021/11/19 07:01:30;;;;;;;;;83.33;64.33;;;;;6.22;71.68;101454.28;4917018;29;8870;-77
2021/11/19 07:04:25;;;;;;;;;76.33;63.33;;;;;5.99;71.45;101445.63;4915905;29;8859;-74
2021/11/19 07:07:21;;;;;;;;;75.33;60.67;;;;;5.90;71.54;101460.16;4897467;29;8974;-70
2021/11/19 07:10:18;;;;;;;;;80.00;61.33;;;;;5.67;72.25;101462.44;4897510;29;8891;-70
2021/11/19 07:13:15;;;;;;;;;81.00;61.67;;;;;5.88;72.33;101465.13;4918642;29;8989;-70
2021/11/19 07:16:10;;;;;;;;;79.33;62.00;;;;;5.66;72.78;101468.19;4926643;29;8976;-71
2021/11/19 07:19:07;;;;;;;;;78.00;62.00;;;;;5.63;73.56;101464.09;4916360;29;8875;-70
2021/11/19 07:22:04;;;;;;;;;64.33;49.67;;;;;5.61;73.87;101454.50;4916358;29;8876;-71
2021/11/19 07:25:00;;;;;;;;;80.33;60.67;;;;;5.50;73.79;101459.19;4916015;29;8871;-71
2021/11/19 07:27:59;;;;;;;;;81.67;64.00;;;;;5.40;74.56;101459.22;4916461;29;8882;-71
2021/11/19 07:30:59;;;;;;;;;89.00;66.67;;;;;5.46;74.34;101464.44;4915007;29;8864;-72
2021/11/19 07:33:55;;;;;;;;;81.67;66.33;;;;;5.46;74.37;101458.13;4916007;29;8931;-72
2021/11/19 07:36:52;;;;;;;;;82.33;64.33;;;;;5.52;73.79;101444.13;4916437;29;9633;-73
2021/11/19 07:39:47;;;;;;;;;83.00;66.00;;;;;5.42;74.43;101446.88;4921953;29;8929;-70
2021/11/19 07:42:43;;;;;;;;;83.67;66.33;;;;;5.66;73.96;101452.56;4897054;29;8924;-73
2021/11/19 07:45:44;;;;;;;;;83.33;64.67;;;;;5.68;73.34;101442.16;4908635;29;8851;-72
2021/11/19 07:48:41;;;;;;;;;78.67;61.33;;;;;5.81;72.92;101452.50;4917634;29;8875;-72
2021/11/19 07:51:40;;;;;;;;;75.33;59.00;;;;;5.65;73.65;101458.31;4916166;29;8883;-71
2021/11/19 07:54:35;;;;;;;;;75.33;63.00;;;;;5.69;73.93;101454.75;4907502;29;9010;-71
2021/11/19 07:57:31;;;;;;;;;108.67;86.67;;;;;5.64;74.18;101460.25;4915700;29;8872;-72
2021/11/19 08:00:31;;;;;;;;;119.00;93.33;;;;;5.74;74.40;101468.44;4927689;29;8880;-71
2021/11/19 08:03:27;;;;;;;;;100.67;76.67;;;;;5.81;74.45;101460.75;4929981;29;8830;-70
2021/11/19 08:06:27;;;;;;;;;89.33;69.00;;;;;5.72;74.50;101456.94;4934357;29;8854;-70
2021/11/19 08:09:23;;;;;;;;;107.00;78.00;;;;;5.81;74.41;101452.50;4934794;29;8851;-71
2021/11/19 08:12:19;;;;;;;;;75.00;61.33;;;;;5.80;74.65;101445.38;4934621;29;8913;-70
2021/11/19 08:15:17;;;;;;;;;79.67;63.67;;;;;5.57;74.85;101446.00;4933637;29;8862;-70
2021/11/19 08:18:20;;;;;;;;;79.67;63.33;;;;;5.95;74.46;101446.44;4933488;29;8854;-70
2021/11/19 08:21:16;;;;;;;;;75.67;62.33;;;;;5.80;74.47;101433.56;4934337;29;9584;-72
2021/11/19 08:24:12;;;;;;;;;71.00;59.00;;;;;5.77;75.07;101437.72;4929983;29;8872;-71
2021/11/19 08:27:16;;;;;;;;;49.33;44.00;;;;;5.73;75.40;101433.06;4934494;29;8826;-71
2021/11/19 08:30:27;;;;;;;;;81.33;58.67;;;;;6.05;74.20;101424.41;4934148;29;8908;-71
2021/11/19 08:33:23;;;;;;;;;74.33;58.67;;;;;5.95;74.63;101428.06;4933688;29;8877;-69
2021/11/19 08:36:22;;;;;;;;;74.33;60.67;;;;;6.10;74.04;101429.91;4930938;29;8900;-70
2021/11/19 08:39:21;;;;;;;;;64.00;52.67;;;;;6.29;73.64;101425.41;4933925;29;8847;-70
2021/11/19 08:42:21;;;;;;;;;67.33;57.00;;;;;6.21;73.93;101420.50;4934949;29;11553;-70
2021/11/19 08:45:20;;;;;;;;;68.50;57.00;;;;;6.37;74.04;101411.06;4933846;29;11543;-70
2021/11/19 08:48:16;;;;;;;;;73.67;59.33;;;;;6.45;74.17;101400.56;4934407;29;11737;-70
2021/11/19 08:51:18;;;;;;;;;65.33;52.00;;;;;6.38;74.30;101407.22;4933866;29;8839;-70
2021/11/19 08:54:16;;;;;;;;;58.25;47.25;;;;;6.60;73.25;101403.22;4933869;29;8957;-70
2021/11/19 08:57:15;;;;;;;;;55.00;46.75;;;;;6.71;72.68;101402.00;4925471;29;11541;-71
2021/11/19 09:00:17;;;;;;;;;66.50;51.50;;;;;6.80;71.85;101396.72;4943387;29;11578;-71
2021/11/19 09:03:12;;;;;;;;;26.75;20.75;;;;;6.77;71.21;101395.38;4936101;29;11619;-71
2021/11/19 09:06:11;;;;;;;;;48.75;44.50;;;;;6.76;70.61;101390.97;4937730;29;11555;-70
2021/11/19 09:09:09;;;;;;;;;57.75;46.50;;;;;6.68;70.18;101381.41;4937760;29;11522;-70
2021/11/19 09:12:05;;;;;;;;;51.25;45.25;;;;;6.74;70.15;101378.59;4937651;29;11656;-72
2021/11/19 09:15:01;;;;;;;;;49.50;45.00;;;;;6.85;68.95;101381.00;4937924;29;11689;-73
2021/11/19 09:18:13;;;;;;;;;57.50;46.00;;;;;7.04;68.88;101378.31;4937843;29;11645;-71
2021/11/19 09:20:49;;;;;;;;;64.25;51.50;;;;;7.07;68.33;101366.75;4938551;29;11620;-73
2021/11/19 09:24:00;;;;;;;;;57.25;45.50;;;;;7.13;68.32;101364.75;4937455;29;11565;-71
2021/11/19 09:27:05;;;;;;;;;49.50;44.00;;;;;7.29;68.13;101359.94;4924527;29;11602;-72
2021/11/19 09:30:13;;;;;;;;;45.00;41.00;;;;;7.48;67.00;101369.88;4905744;29;11562;-71
2021/11/19 09:33:13;;;;;;;;;53.00;44.00;;;;;7.56;66.13;101373.91;4934841;29;11556;-71
2021/11/19 09:36:09;;;;;;;;;61.25;51.25;;;;;7.58;66.62;101360.66;4938188;29;11554;-71
2021/11/19 09:39:07;;;;;;;;;53.25;45.00;;;;;7.84;65.53;101358.41;4937378;29;11648;-72
2021/11/19 09:42:20;;;;;;;;;65.00;50.75;;;;;7.81;65.92;101353.47;4936517;29;11642;-72
2021/11/19 09:45:29;;;;;;;;;62.50;52.75;;;;;7.95;65.89;101348.88;4935714;29;11700;-72
2021/11/19 09:48:49;;;;;;;;;74.50;58.25;;;;;7.89;65.36;101349.25;4937653;29;11557;-72
2021/11/19 09:52:09;;;;;;;;;60.75;50.00;;;;;8.17;65.12;101350.22;4936464;29;11550;-72
2021/11/19 09:54:51;;;;;;;;;86.00;66.67;;;;;8.17;65.06;101347.47;4937652;29;11538;-73
2021/11/19 09:58:20;;;;;;;;;71.00;57.25;;;;;8.01;64.84;101339.44;4917561;29;11570;-74
2021/11/19 10:01:32;;;;;;;;;69.00;56.25;;;;;7.99;64.50;101336.16;4851527;29;11598;-73
2021/11/19 10:04:25;;;;;;;;;75.50;61.50;;;;;7.88;65.77;101328.31;4916924;29;11553;-73
2021/11/19 10:07:14;;;;;;;;;77.50;60.00;;;;;7.97;65.21;101324.59;4937229;29;11586;-72
2021/11/19 10:10:02;;;;;;;;;69.00;55.25;;;;;7.96;64.54;101320.22;4937349;29;11580;-73
2021/11/19 10:13:09;;;;;;;;;61.50;51.50;;;;;7.96;65.26;101308.38;4936317;29;11560;-72
2021/11/19 10:16:19;;;;;;;;;68.50;56.00;;;;;7.92;65.28;101313.69;4937412;29;11550;-73
2021/11/19 10:20:01;;;;;;;;;65.50;53.25;;;;;8.35;64.43;101300.63;4923586;29;11566;-74
2021/11/19 10:23:27;;;;;;;;;72.50;58.50;;;;;8.45;64.23;101294.13;4879670;29;11807;-77
2021/11/19 10:26:35;;;;;;;;;80.25;58.25;;;;;8.50;64.16;101285.75;4917394;29;11591;-76
2021/11/19 10:29:38;;;;;;;;;67.25;55.25;;;;;8.79;63.80;101284.69;4923036;29;11574;-78
2021/11/19 10:32:08;;;;;;;;;70.75;54.75;;;;;8.78;63.10;101280.31;4919909;29;11661;-75
2021/11/19 10:35:44;;;;;;;;;69.50;54.25;;;;;8.72;62.94;101279.56;4935505;29;11588;-77
2021/11/19 10:38:51;;;;;;;;;65.50;55.25;;;;;9.14;62.07;101275.75;4936663;29;11563;-76
2021/11/19 10:41:59;;;;;;;;;69.50;56.00;;;;;9.40;61.28;101280.72;4922534;29;11550;-75
2021/11/19 10:45:00;;;;;;;;;70.00;55.75;;;;;9.48;61.02;101271.72;4936135;29;11579;-76
2021/11/19 10:48:18;;;;;;;;;65.75;52.25;;;;;9.30;61.96;101267.97;4936587;29;11583;-76
2021/11/19 10:51:50;;;;;;;;;66.50;54.75;;;;;8.95;62.90;101266.72;4935301;29;11692;-76
2021/11/19 10:55:01;;;;;;;;;68.25;55.00;;;;;8.75;63.22;101258.88;4935417;29;11704;-74
2021/11/19 10:58:19;;;;;;;;;70.00;56.00;;;;;9.06;62.67;101248.88;4936402;29;11723;-76
2021/11/19 11:00:59;;;;;;;;;67.75;53.75;;;;;9.25;62.12;101245.97;4926896;29;11592;-76
2021/11/19 11:04:14;;;;;;;;;76.00;56.25;;;;;9.01;63.02;101251.72;4934867;29;12278;-77
2021/11/19 11:07:15;;;;;;;;;66.00;54.50;;;;;8.88;63.32;101252.53;4935538;29;11565;-76
2021/11/19 11:10:19;;;;;;;;;64.75;54.00;;;;;9.02;63.55;101241.50;4935393;29;11556;-76
2021/11/19 11:13:31;;;;;;;;;63.00;50.50;;;;;9.01;63.53;101237.09;4935345;29;11552;-78
2021/11/19 11:16:35;;;;;;;;;68.00;53.25;;;;;8.82;64.26;101242.75;4922417;29;11569;-78
2021/11/19 11:19:42;;;;;;;;;76.75;58.50;;;;;8.56;65.16;101245.97;4934785;29;11577;-76
2021/11/19 11:22:15;;;;;;;;;47.25;43.25;;;;;8.54;65.24;101248.19;4936023;29;11557;-77
2021/11/19 11:24:55;;;;;;;;;69.50;55.75;;;;;8.40;66.13;101244.59;4935820;29;11685;-77
2021/11/19 11:27:35;;;;;;;;;60.00;50.00;;;;;8.21;67.29;101236.38;4936095;29;11759;-78
2021/11/19 11:31:12;;;;;;;;;59.50;49.00;;;;;8.29;67.35;101235.66;4934996;29;11559;-77
2021/11/19 11:34:49;;;;;;;;;59.75;47.50;;;;;8.27;67.50;101237.06;4935571;29;12298;-78
2021/11/19 11:37:29;;;;;;;;;59.75;46.00;;;;;7.99;67.76;101237.00;4917302;29;11614;-78
2021/11/19 11:40:24;;;;;;;;;62.00;51.75;;;;;7.76;68.92;101233.22;4922087;29;11545;-78
2021/11/19 11:43:19;;;;;;;;;53.50;45.25;;;;;7.94;68.67;101228.81;4934166;29;11551;-77
2021/11/19 11:45:54;;;;;;;;;56.00;46.75;;;;;7.76;69.28;101226.91;4935646;29;11665;-78
2021/11/19 11:49:03;;;;;;;;;59.25;48.75;;;;;7.80;68.36;101223.22;4934666;29;12344;-78
2021/11/19 11:51:37;;;;;;;;;54.00;46.75;;;;;7.75;68.88;101223.34;4935552;29;11542;-77
2021/11/19 11:54:23;;;;;;;;;62.50;53.00;;;;;7.63;69.20;101230.41;4935245;29;11537;-78
2021/11/19 11:57:27;;;;;;;;;56.75;48.00;;;;;7.35;69.93;101219.22;4935066;29;11540;-76
2021/11/19 11:59:59;;;;;;;;;78.75;56.25;;;;;7.32;70.05;101217.06;4934951;29;11720;-76
2021/11/19 12:02:46;;;;;;;;;66.25;54.25;;;;;7.28;70.56;101224.25;4935335;29;11527;-76
2021/11/19 12:05:24;;;;;;;;;67.25;55.25;;;;;7.08;71.06;101227.31;4935028;29;11575;-73
2021/11/19 12:08:12;;;;;;;;;55.00;48.25;;;;;7.25;71.23;101213.88;4919077;29;12204;-75
2021/11/19 12:11:23;;;;;;;;;61.50;52.50;;;;;7.21;70.71;101226.59;4934773;29;11592;-73
2021/11/19 12:14:50;;;;;;;;;54.00;45.75;;;;;7.06;71.88;101213.03;4924894;29;11593;-75
2021/11/19 12:17:49;;;;;;;;;60.75;52.00;;;;;7.19;71.07;101215.84;4924230;29;11555;-75
2021/11/19 12:21:04;;;;;;;;;69.00;55.75;;;;;7.17;71.51;101223.59;4933577;29;11597;-73
2021/11/19 12:23:58;;;;;;;;;49.25;44.75;;;;;7.17;71.05;101211.78;4940170;29;11566;-73
2021/11/19 12:27:04;;;;;;;;;57.50;48.50;;;;;7.21;70.48;101218.34;4932665;29;11537;-74
2021/11/19 12:29:51;;;;;;;;;57.00;48.50;;;;;7.03;70.99;101225.41;4933961;29;11538;-73
2021/11/19 12:32:34;;;;;;;;;56.25;46.50;;;;;6.79;72.38;101224.63;4917479;29;11551;-73
2021/11/19 12:35:39;;;;;;;;;63.50;53.75;;;;;6.80;71.96;101223.50;4921226;29;11532;-73
2021/11/19 12:38:28;;;;;;;;;66.75;53.75;;;;;6.94;71.84;101224.44;4937797;29;11573;-73
2021/11/19 12:41:29;;;;;;;;;68.50;53.25;;;;;6.96;72.21;101219.44;4937152;29;12372;-72
2021/11/19 12:44:30;;;;;;;;;58.00;48.50;;;;;6.69;72.55;101223.63;4935151;29;11696;-73
2021/11/19 12:47:54;;;;;;;;;64.25;48.50;;;;;6.60;72.71;101224.56;4936149;28;11532;-72
2021/11/19 12:51:03;;;;;;;;;62.00;48.75;;;;;6.72;72.64;101219.47;4935543;29;12390;-72
2021/11/19 12:54:09;;;;;;;;;72.75;51.25;;;;;6.79;72.61;101219.94;4936233;29;11670;-73
2021/11/19 12:57:22;;;;;;;;;59.00;50.50;;;;;6.99;71.81;101227.13;4936469;29;11552;-73
2021/11/19 13:00:13;;;;;;;;;55.75;47.50;;;;;6.93;71.71;101217.31;4920119;29;12515;-73
2021/11/19 13:03:46;;;;;;;;;58.75;46.75;;;;;6.72;72.04;101218.66;4934411;29;11576;-73
2021/11/19 13:07:02;;;;;;;;;49.50;43.50;;;;;6.76;72.29;101225.22;4935649;29;11559;-74
2021/11/19 13:09:50;;;;;;;;;57.50;47.75;;;;;6.69;72.68;101220.06;4920330;29;11551;-73
2021/11/19 13:13:25;;;;;;;;;58.50;50.25;;;;;6.69;72.68;101215.38;4921089;29;11546;-73
2021/11/19 13:16:30;;;;;;;;;60.75;51.75;;;;;6.81;72.44;101211.38;4935151;29;12320;-73
2021/11/19 13:19:29;;;;;;;;;58.25;49.75;;;;;6.44;73.60;101207.41;4912234;29;11566;-72
2021/11/19 13:22:31;;;;;;;;;57.75;47.00;;;;;6.58;73.24;101204.78;4932612;29;11616;-72
2021/11/19 13:25:33;;;;;;;;;51.00;44.75;;;;;6.23;74.42;101211.47;4935695;29;11634;-73
2021/11/19 13:28:03;;;;;;;;;57.25;48.75;;;;;6.43;73.63;101191.19;4936842;29;11574;-74
2021/11/19 13:31:23;;;;;;;;;59.00;50.25;;;;;6.24;74.46;101200.19;4935363;29;11554;-74
2021/11/19 13:34:03;;;;;;;;;43.50;41.25;;;;;6.28;74.08;101206.72;4936308;29;11631;-73
2021/11/19 13:37:10;;;;;;;;;61.00;52.00;;;;;6.30;74.17;101212.78;4934399;29;11595;-73
2021/11/19 13:39:38;;;;;;;;;68.25;55.75;;;;;6.28;74.07;101214.97;4935858;29;11538;-73
2021/11/19 13:42:49;;;;;;;;;59.00;47.00;;;;;6.21;74.29;101197.19;4935298;29;11542;-71
2021/11/19 13:45:59;;;;;;;;;62.75;49.75;;;;;6.14;74.75;101211.28;4932723;29;11537;-72